sensor_id;sensor_type;location;lat;lon;timestamp;temperature;humidity
5258;DHT22;2651;51.594;9.928;2023-11-21T00:00:27;6.00;45.30
5258;DHT22;2651;51.594;9.928;2023-11-21T00:01:29;5.90;47.80
5258;DHT22;2651;51.594;9.928;2023-11-21T00:02:30;5.90;46.20
5258;DHT22;2651;51.594;9.928;2023-11-21T00:03:32;5.90;55.30
5258;DHT22;2651;51.594;9.928;2023-11-21T00:04:34;5.90;61.70
5258;DHT22;2651;51.594;9.928;2023-11-21T00:05:36;6.00;70.10
5258;DHT22;2651;51.594;9.928;2023-11-21T00:06:38;6.00;67.80
5258;DHT22;2651;51.594;9.928;2023-11-21T00:07:40;6.00;57.80
5258;DHT22;2651;51.594;9.928;2023-11-21T00:08:42;5.90;41.80
5258;DHT22;2651;51.594;9.928;2023-11-21T00:09:44;5.80;38.40
5258;DHT22;2651;51.594;9.928;2023-11-21T00:10:45;5.80;45.30
5258;DHT22;2651;51.594;9.928;2023-11-21T00:11:47;5.80;51.00
5258;DHT22;2651;51.594;9.928;2023-11-21T00:12:49;5.80;63.10
5258;DHT22;2651;51.594;9.928;2023-11-21T00:13:51;5.80;74.60
5258;DHT22;2651;51.594;9.928;2023-11-21T00:14:52;5.80;68.90
5258;DHT22;2651;51.594;9.928;2023-11-21T00:15:58;5.70;74.80
5258;DHT22;2651;51.594;9.928;2023-11-21T00:17:00;5.70;81.50
5258;DHT22;2651;51.594;9.928;2023-11-21T00:18:02;5.70;88.80
5258;DHT22;2651;51.594;9.928;2023-11-21T00:19:04;5.60;89.30
5258;DHT22;2651;51.594;9.928;2023-11-21T00:20:06;5.50;91.70
5258;DHT22;2651;51.594;9.928;2023-11-21T00:21:09;5.50;96.20
5258;DHT22;2651;51.594;9.928;2023-11-21T00:22:10;5.50;99.90
5258;DHT22;2651;51.594;9.928;2023-11-21T00:23:12;5.50;99.90
5258;DHT22;2651;51.594;9.928;2023-11-21T00:24:14;5.50;99.90
5258;DHT22;2651;51.594;9.928;2023-11-21T00:25:16;5.50;99.90
5258;DHT22;2651;51.594;9.928;2023-11-21T00:26:19;5.50;99.90
5258;DHT22;2651;51.594;9.928;2023-11-21T00:27:20;5.50;99.90
5258;DHT22;2651;51.594;9.928;2023-11-21T00:28:22;5.60;99.90
5258;DHT22;2651;51.594;9.928;2023-11-21T00:29:24;5.60;99.90
5258;DHT22;2651;51.594;9.928;2023-11-21T00:30:26;5.60;99.90
5258;DHT22;2651;51.594;9.928;2023-11-21T00:31:27;5.60;99.90
5258;DHT22;2651;51.594;9.928;2023-11-21T00:32:29;5.60;99.90
5258;DHT22;2651;51.594;9.928;2023-11-21T00:33:31;5.70;99.90
5258;DHT22;2651;51.594;9.928;2023-11-21T00:34:33;5.70;99.90
5258;DHT22;2651;51.594;9.928;2023-11-21T00:35:36;5.70;99.90
5258;DHT22;2651;51.594;9.928;2023-11-21T00:36:38;5.70;99.90
5258;DHT22;2651;51.594;9.928;2023-11-21T00:37:39;5.70;99.90
5258;DHT22;2651;51.594;9.928;2023-11-21T00:38:41;5.80;99.90
5258;DHT22;2651;51.594;9.928;2023-11-21T00:39:43;5.80;99.90
5258;DHT22;2651;51.594;9.928;2023-11-21T00:40:45;5.80;99.90
5258;DHT22;2651;51.594;9.928;2023-11-21T00:41:47;5.90;99.90
5258;DHT22;2651;51.594;9.928;2023-11-21T00:42:49;5.90;99.90
5258;DHT22;2651;51.594;9.928;2023-11-21T00:43:51;5.90;99.90
5258;DHT22;2651;51.594;9.928;2023-11-21T00:44:53;6.00;99.90
5258;DHT22;2651;51.594;9.928;2023-11-21T00:45:55;6.00;99.90
5258;DHT22;2651;51.594;9.928;2023-11-21T00:46:56;6.00;99.90
5258;DHT22;2651;51.594;9.928;2023-11-21T00:47:58;6.00;99.90
5258;DHT22;2651;51.594;9.928;2023-11-21T00:49:00;6.00;99.90
5258;DHT22;2651;51.594;9.928;2023-11-21T00:50:02;6.00;99.90
5258;DHT22;2651;51.594;9.928;2023-11-21T00:51:04;6.00;99.90
5258;DHT22;2651;51.594;9.928;2023-11-21T00:52:07;6.00;99.90
5258;DHT22;2651;51.594;9.928;2023-11-21T00:53:09;6.00;99.90
5258;DHT22;2651;51.594;9.928;2023-11-21T00:54:11;6.00;99.90
5258;DHT22;2651;51.594;9.928;2023-11-21T00:55:13;6.00;99.90
5258;DHT22;2651;51.594;9.928;2023-11-21T00:56:15;5.90;99.90
5258;DHT22;2651;51.594;9.928;2023-11-21T00:57:16;5.90;99.90
5258;DHT22;2651;51.594;9.928;2023-11-21T00:58:18;5.80;99.90
5258;DHT22;2651;51.594;9.928;2023-11-21T00:59:20;5.70;93.50
5258;DHT22;2651;51.594;9.928;2023-11-21T01:00:21;5.60;91.30
5258;DHT22;2651;51.594;9.928;2023-11-21T01:01:25;5.70;96.00
5258;DHT22;2651;51.594;9.928;2023-11-21T01:02:26;5.60;96.80
5258;DHT22;2651;51.594;9.928;2023-11-21T01:03:28;5.60;97.60
5258;DHT22;2651;51.594;9.928;2023-11-21T01:04:30;5.60;97.90
5258;DHT22;2651;51.594;9.928;2023-11-21T01:05:33;5.50;93.70
5258;DHT22;2651;51.594;9.928;2023-11-21T01:06:35;5.50;93.10
5258;DHT22;2651;51.594;9.928;2023-11-21T01:07:37;5.40;84.80
5258;DHT22;2651;51.594;9.928;2023-11-21T01:08:39;5.30;83.70
5258;DHT22;2651;51.594;9.928;2023-11-21T01:09:41;5.20;82.30
5258;DHT22;2651;51.594;9.928;2023-11-21T01:10:43;5.20;85.10
5258;DHT22;2651;51.594;9.928;2023-11-21T01:11:44;5.10;91.30
5258;DHT22;2651;51.594;9.928;2023-11-21T01:12:47;5.10;96.60
5258;DHT22;2651;51.594;9.928;2023-11-21T01:13:50;5.20;99.90
5258;DHT22;2651;51.594;9.928;2023-11-21T01:14:52;5.20;99.90
5258;DHT22;2651;51.594;9.928;2023-11-21T01:15:54;5.20;99.90
5258;DHT22;2651;51.594;9.928;2023-11-21T01:16:55;5.10;99.90
5258;DHT22;2651;51.594;9.928;2023-11-21T01:17:57;5.10;99.90
5258;DHT22;2651;51.594;9.928;2023-11-21T01:18:59;5.10;99.90
5258;DHT22;2651;51.594;9.928;2023-11-21T01:20:02;5.10;99.90
5258;DHT22;2651;51.594;9.928;2023-11-21T01:21:05;5.00;99.90
5258;DHT22;2651;51.594;9.928;2023-11-21T01:22:06;5.00;99.90
5258;DHT22;2651;51.594;9.928;2023-11-21T01:23:08;4.90;99.90
5258;DHT22;2651;51.594;9.928;2023-11-21T01:24:10;4.90;99.90
5258;DHT22;2651;51.594;9.928;2023-11-21T01:25:12;4.90;99.90
5258;DHT22;2651;51.594;9.928;2023-11-21T01:26:16;4.90;99.90
5258;DHT22;2651;51.594;9.928;2023-11-21T01:27:17;4.90;99.90
5258;DHT22;2651;51.594;9.928;2023-11-21T01:28:20;4.90;99.90
5258;DHT22;2651;51.594;9.928;2023-11-21T01:29:21;4.90;99.90
5258;DHT22;2651;51.594;9.928;2023-11-21T01:30:23;4.90;99.90
5258;DHT22;2651;51.594;9.928;2023-11-21T01:31:25;5.00;99.90
5258;DHT22;2651;51.594;9.928;2023-11-21T01:32:30;5.00;99.90
5258;DHT22;2651;51.594;9.928;2023-11-21T01:33:32;5.00;99.90
5258;DHT22;2651;51.594;9.928;2023-11-21T01:34:35;5.10;99.90
5258;DHT22;2651;51.594;9.928;2023-11-21T01:35:36;5.20;99.90
5258;DHT22;2651;51.594;9.928;2023-11-21T01:36:38;5.20;99.90
5258;DHT22;2651;51.594;9.928;2023-11-21T01:37:40;5.30;99.90
5258;DHT22;2651;51.594;9.928;2023-11-21T01:38:42;5.40;99.90
5258;DHT22;2651;51.594;9.928;2023-11-21T01:39:43;5.50;99.90
5258;DHT22;2651;51.594;9.928;2023-11-21T01:40:46;5.50;99.90
5258;DHT22;2651;51.594;9.928;2023-11-21T01:41:47;5.60;99.90
5258;DHT22;2651;51.594;9.928;2023-11-21T01:42:49;5.60;99.90
5258;DHT22;2651;51.594;9.928;2023-11-21T01:43:51;5.60;99.90
5258;DHT22;2651;51.594;9.928;2023-11-21T01:44:53;5.60;99.90
5258;DHT22;2651;51.594;9.928;2023-11-21T01:45:56;5.60;99.90
5258;DHT22;2651;51.594;9.928;2023-11-21T01:46:58;5.70;99.90
5258;DHT22;2651;51.594;9.928;2023-11-21T01:48:00;5.60;99.90
5258;DHT22;2651;51.594;9.928;2023-11-21T01:49:04;5.70;99.90
5258;DHT22;2651;51.594;9.928;2023-11-21T01:50:07;5.70;99.90
5258;DHT22;2651;51.594;9.928;2023-11-21T01:51:09;5.70;99.90
5258;DHT22;2651;51.594;9.928;2023-11-21T01:52:11;5.70;99.90
5258;DHT22;2651;51.594;9.928;2023-11-21T01:53:13;5.80;99.90
5258;DHT22;2651;51.594;9.928;2023-11-21T01:54:16;5.90;99.90
5258;DHT22;2651;51.594;9.928;2023-11-21T01:55:19;5.90;99.90
5258;DHT22;2651;51.594;9.928;2023-11-21T01:56:29;6.00;99.90
5258;DHT22;2651;51.594;9.928;2023-11-21T01:57:32;6.00;99.90
5258;DHT22;2651;51.594;9.928;2023-11-21T01:58:34;6.00;99.90
5258;DHT22;2651;51.594;9.928;2023-11-21T01:59:37;6.10;99.90
5258;DHT22;2651;51.594;9.928;2023-11-21T02:00:39;6.00;99.90
5258;DHT22;2651;51.594;9.928;2023-11-21T02:01:41;6.00;99.90
5258;DHT22;2651;51.594;9.928;2023-11-21T02:02:46;6.00;99.90
5258;DHT22;2651;51.594;9.928;2023-11-21T02:03:48;6.00;99.90
5258;DHT22;2651;51.594;9.928;2023-11-21T02:04:50;6.10;99.90
5258;DHT22;2651;51.594;9.928;2023-11-21T02:05:53;6.10;99.90
5258;DHT22;2651;51.594;9.928;2023-11-21T02:06:55;6.10;99.90
5258;DHT22;2651;51.594;9.928;2023-11-21T02:07:57;6.10;99.90
5258;DHT22;2651;51.594;9.928;2023-11-21T02:08:59;6.10;99.90
5258;DHT22;2651;51.594;9.928;2023-11-21T02:10:01;6.20;99.90
5258;DHT22;2651;51.594;9.928;2023-11-21T02:11:03;6.20;99.90
5258;DHT22;2651;51.594;9.928;2023-11-21T02:12:05;6.20;99.90
5258;DHT22;2651;51.594;9.928;2023-11-21T02:13:07;6.30;99.90
5258;DHT22;2651;51.594;9.928;2023-11-21T02:14:08;6.30;99.90
5258;DHT22;2651;51.594;9.928;2023-11-21T02:15:12;6.30;99.90
5258;DHT22;2651;51.594;9.928;2023-11-21T02:16:18;6.30;99.90
5258;DHT22;2651;51.594;9.928;2023-11-21T02:17:19;6.40;99.90
5258;DHT22;2651;51.594;9.928;2023-11-21T02:18:22;6.40;99.90
5258;DHT22;2651;51.594;9.928;2023-11-21T02:19:24;6.40;99.90
5258;DHT22;2651;51.594;9.928;2023-11-21T02:20:27;6.40;99.90
5258;DHT22;2651;51.594;9.928;2023-11-21T02:21:30;6.40;99.90
5258;DHT22;2651;51.594;9.928;2023-11-21T02:22:37;6.30;97.80
5258;DHT22;2651;51.594;9.928;2023-11-21T02:23:42;6.30;97.40
5258;DHT22;2651;51.594;9.928;2023-11-21T02:24:46;6.30;93.50
5258;DHT22;2651;51.594;9.928;2023-11-21T02:25:48;6.30;90.30
5258;DHT22;2651;51.594;9.928;2023-11-21T02:26:50;6.30;85.10
5258;DHT22;2651;51.594;9.928;2023-11-21T02:27:56;6.20;71.10
5258;DHT22;2651;51.594;9.928;2023-11-21T02:28:58;6.10;73.60
5258;DHT22;2651;51.594;9.928;2023-11-21T02:29:59;6.10;71.00
5258;DHT22;2651;51.594;9.928;2023-11-21T02:31:02;6.10;88.50
5258;DHT22;2651;51.594;9.928;2023-11-21T02:32:06;6.10;94.60
5258;DHT22;2651;51.594;9.928;2023-11-21T02:33:08;6.10;95.20
5258;DHT22;2651;51.594;9.928;2023-11-21T02:34:09;6.00;92.00
5258;DHT22;2651;51.594;9.928;2023-11-21T02:35:11;5.90;83.00
5258;DHT22;2651;51.594;9.928;2023-11-21T02:36:13;5.90;78.50
5258;DHT22;2651;51.594;9.928;2023-11-21T02:37:15;5.80;76.10
5258;DHT22;2651;51.594;9.928;2023-11-21T02:38:17;5.70;85.90
5258;DHT22;2651;51.594;9.928;2023-11-21T02:39:19;5.70;93.30
5258;DHT22;2651;51.594;9.928;2023-11-21T02:40:23;5.70;97.20
5258;DHT22;2651;51.594;9.928;2023-11-21T02:41:27;5.70;97.80
5258;DHT22;2651;51.594;9.928;2023-11-21T02:42:30;5.70;99.90
5258;DHT22;2651;51.594;9.928;2023-11-21T02:43:32;5.70;99.50
5258;DHT22;2651;51.594;9.928;2023-11-21T02:44:33;5.60;93.90
5258;DHT22;2651;51.594;9.928;2023-11-21T02:45:36;5.60;94.60
5258;DHT22;2651;51.594;9.928;2023-11-21T02:46:38;5.60;95.70
5258;DHT22;2651;51.594;9.928;2023-11-21T02:47:41;5.50;93.10
5258;DHT22;2651;51.594;9.928;2023-11-21T02:48:43;5.50;93.70
5258;DHT22;2651;51.594;9.928;2023-11-21T02:49:45;5.50;98.00
5258;DHT22;2651;51.594;9.928;2023-11-21T02:50:47;5.50;97.90
5258;DHT22;2651;51.594;9.928;2023-11-21T02:51:48;5.50;99.90
5258;DHT22;2651;51.594;9.928;2023-11-21T02:52:50;5.50;99.90
5258;DHT22;2651;51.594;9.928;2023-11-21T02:53:52;5.50;99.90
5258;DHT22;2651;51.594;9.928;2023-11-21T02:54:54;5.50;99.90
5258;DHT22;2651;51.594;9.928;2023-11-21T02:55:56;5.50;99.90
5258;DHT22;2651;51.594;9.928;2023-11-21T02:56:57;5.50;99.90
5258;DHT22;2651;51.594;9.928;2023-11-21T02:58:00;5.50;99.90
5258;DHT22;2651;51.594;9.928;2023-11-21T02:59:03;5.50;99.90
5258;DHT22;2651;51.594;9.928;2023-11-21T03:00:05;5.50;98.80
5258;DHT22;2651;51.594;9.928;2023-11-21T03:01:09;5.50;99.90
5258;DHT22;2651;51.594;9.928;2023-11-21T03:02:11;5.50;99.90
5258;DHT22;2651;51.594;9.928;2023-11-21T03:03:12;5.60;99.90
5258;DHT22;2651;51.594;9.928;2023-11-21T03:04:16;5.60;99.90
5258;DHT22;2651;51.594;9.928;2023-11-21T03:05:19;5.60;99.90
5258;DHT22;2651;51.594;9.928;2023-11-21T03:06:22;5.60;99.90
5258;DHT22;2651;51.594;9.928;2023-11-21T03:07:25;5.60;99.10
5258;DHT22;2651;51.594;9.928;2023-11-21T03:08:26;5.60;99.40
5258;DHT22;2651;51.594;9.928;2023-11-21T03:09:28;5.50;96.40
5258;DHT22;2651;51.594;9.928;2023-11-21T03:10:30;5.40;96.20
5258;DHT22;2651;51.594;9.928;2023-11-21T03:11:31;5.40;96.40
5258;DHT22;2651;51.594;9.928;2023-11-21T03:12:33;5.40;99.00
5258;DHT22;2651;51.594;9.928;2023-11-21T03:13:35;5.40;99.80
5258;DHT22;2651;51.594;9.928;2023-11-21T03:14:37;5.40;99.90
5258;DHT22;2651;51.594;9.928;2023-11-21T03:15:39;5.40;99.90
5258;DHT22;2651;51.594;9.928;2023-11-21T03:16:41;5.30;99.90
5258;DHT22;2651;51.594;9.928;2023-11-21T03:17:43;5.30;99.90
5258;DHT22;2651;51.594;9.928;2023-11-21T03:18:44;5.30;99.90
5258;DHT22;2651;51.594;9.928;2023-11-21T03:19:46;5.20;99.90
5258;DHT22;2651;51.594;9.928;2023-11-21T03:20:48;5.30;99.90
5258;DHT22;2651;51.594;9.928;2023-11-21T03:21:50;5.30;99.90
5258;DHT22;2651;51.594;9.928;2023-11-21T03:22:54;5.30;99.90
5258;DHT22;2651;51.594;9.928;2023-11-21T03:23:56;5.30;99.90
5258;DHT22;2651;51.594;9.928;2023-11-21T03:24:58;5.30;99.90
5258;DHT22;2651;51.594;9.928;2023-11-21T03:26:00;5.20;99.90
5258;DHT22;2651;51.594;9.928;2023-11-21T03:27:01;5.20;99.90
5258;DHT22;2651;51.594;9.928;2023-11-21T03:28:03;5.20;99.90
5258;DHT22;2651;51.594;9.928;2023-11-21T03:29:05;5.20;99.90
5258;DHT22;2651;51.594;9.928;2023-11-21T03:30:08;5.10;99.90
5258;DHT22;2651;51.594;9.928;2023-11-21T03:31:10;5.20;99.90
5258;DHT22;2651;51.594;9.928;2023-11-21T03:32:12;5.20;99.90
5258;DHT22;2651;51.594;9.928;2023-11-21T03:33:14;5.20;99.90
5258;DHT22;2651;51.594;9.928;2023-11-21T03:34:24;5.20;99.90
5258;DHT22;2651;51.594;9.928;2023-11-21T03:35:27;5.10;99.90
5258;DHT22;2651;51.594;9.928;2023-11-21T03:36:29;5.10;99.90
5258;DHT22;2651;51.594;9.928;2023-11-21T03:37:31;5.10;99.90
5258;DHT22;2651;51.594;9.928;2023-11-21T03:38:32;5.10;99.90
5258;DHT22;2651;51.594;9.928;2023-11-21T03:39:34;5.10;99.90
5258;DHT22;2651;51.594;9.928;2023-11-21T03:40:37;5.10;99.90
5258;DHT22;2651;51.594;9.928;2023-11-21T03:41:38;5.10;99.90
5258;DHT22;2651;51.594;9.928;2023-11-21T03:42:40;5.10;99.90
5258;DHT22;2651;51.594;9.928;2023-11-21T03:43:42;5.20;99.90
5258;DHT22;2651;51.594;9.928;2023-11-21T03:44:44;5.20;99.90
5258;DHT22;2651;51.594;9.928;2023-11-21T03:45:46;5.20;99.90
5258;DHT22;2651;51.594;9.928;2023-11-21T03:46:47;5.20;99.90
5258;DHT22;2651;51.594;9.928;2023-11-21T03:47:49;5.10;99.90
5258;DHT22;2651;51.594;9.928;2023-11-21T03:48:51;5.10;99.90
5258;DHT22;2651;51.594;9.928;2023-11-21T03:49:53;5.10;99.90
5258;DHT22;2651;51.594;9.928;2023-11-21T03:50:55;5.10;99.90
5258;DHT22;2651;51.594;9.928;2023-11-21T03:51:56;5.00;99.90
5258;DHT22;2651;51.594;9.928;2023-11-21T03:52:58;5.00;99.90
5258;DHT22;2651;51.594;9.928;2023-11-21T03:54:00;5.00;99.90
5258;DHT22;2651;51.594;9.928;2023-11-21T03:55:02;5.00;99.90
5258;DHT22;2651;51.594;9.928;2023-11-21T03:56:04;5.10;99.90
5258;DHT22;2651;51.594;9.928;2023-11-21T03:57:07;5.10;99.90
5258;DHT22;2651;51.594;9.928;2023-11-21T03:58:09;5.10;99.90
5258;DHT22;2651;51.594;9.928;2023-11-21T03:59:10;5.10;99.90
5258;DHT22;2651;51.594;9.928;2023-11-21T04:00:13;5.10;99.90
5258;DHT22;2651;51.594;9.928;2023-11-21T04:01:24;5.10;99.90
5258;DHT22;2651;51.594;9.928;2023-11-21T04:02:26;5.10;99.90
5258;DHT22;2651;51.594;9.928;2023-11-21T04:03:29;5.20;99.90
5258;DHT22;2651;51.594;9.928;2023-11-21T04:04:31;5.20;99.90
5258;DHT22;2651;51.594;9.928;2023-11-21T04:05:33;5.20;99.90
5258;DHT22;2651;51.594;9.928;2023-11-21T04:06:35;5.30;99.90
5258;DHT22;2651;51.594;9.928;2023-11-21T04:07:37;5.30;99.90
5258;DHT22;2651;51.594;9.928;2023-11-21T04:08:40;5.30;99.90
5258;DHT22;2651;51.594;9.928;2023-11-21T04:09:41;5.30;99.90
5258;DHT22;2651;51.594;9.928;2023-11-21T04:10:43;5.30;99.90
5258;DHT22;2651;51.594;9.928;2023-11-21T04:11:45;5.40;99.90
5258;DHT22;2651;51.594;9.928;2023-11-21T04:12:47;5.40;99.90
5258;DHT22;2651;51.594;9.928;2023-11-21T04:13:49;5.40;99.90
5258;DHT22;2651;51.594;9.928;2023-11-21T04:14:51;5.40;99.90
5258;DHT22;2651;51.594;9.928;2023-11-21T04:15:56;5.40;99.90
5258;DHT22;2651;51.594;9.928;2023-11-21T04:16:58;5.40;99.90
5258;DHT22;2651;51.594;9.928;2023-11-21T04:18:00;5.40;99.90
5258;DHT22;2651;51.594;9.928;2023-11-21T04:19:02;5.30;99.90
5258;DHT22;2651;51.594;9.928;2023-11-21T04:20:05;5.30;99.90
5258;DHT22;2651;51.594;9.928;2023-11-21T04:21:10;5.30;99.90
5258;DHT22;2651;51.594;9.928;2023-11-21T04:22:12;5.30;99.90
5258;DHT22;2651;51.594;9.928;2023-11-21T04:23:14;5.30;99.90
5258;DHT22;2651;51.594;9.928;2023-11-21T04:24:16;5.30;99.90
5258;DHT22;2651;51.594;9.928;2023-11-21T04:25:18;5.30;99.90
5258;DHT22;2651;51.594;9.928;2023-11-21T04:26:20;5.30;99.90
5258;DHT22;2651;51.594;9.928;2023-11-21T04:27:22;5.40;99.90
5258;DHT22;2651;51.594;9.928;2023-11-21T04:28:24;5.40;99.90
5258;DHT22;2651;51.594;9.928;2023-11-21T04:29:26;5.40;99.90
5258;DHT22;2651;51.594;9.928;2023-11-21T04:30:27;5.50;99.90
5258;DHT22;2651;51.594;9.928;2023-11-21T04:31:29;5.50;99.90
5258;DHT22;2651;51.594;9.928;2023-11-21T04:32:31;5.50;99.90
5258;DHT22;2651;51.594;9.928;2023-11-21T04:33:33;5.60;99.90
5258;DHT22;2651;51.594;9.928;2023-11-21T04:34:34;5.60;99.90
5258;DHT22;2651;51.594;9.928;2023-11-21T04:35:36;5.70;99.90
5258;DHT22;2651;51.594;9.928;2023-11-21T04:36:38;5.70;99.90
5258;DHT22;2651;51.594;9.928;2023-11-21T04:37:39;5.80;99.90
5258;DHT22;2651;51.594;9.928;2023-11-21T04:38:41;5.80;99.90
5258;DHT22;2651;51.594;9.928;2023-11-21T04:39:44;5.90;99.90
5258;DHT22;2651;51.594;9.928;2023-11-21T04:40:45;5.90;99.90
5258;DHT22;2651;51.594;9.928;2023-11-21T04:41:47;5.90;99.90
5258;DHT22;2651;51.594;9.928;2023-11-21T04:42:49;5.90;99.90
5258;DHT22;2651;51.594;9.928;2023-11-21T04:43:51;5.90;99.90
5258;DHT22;2651;51.594;9.928;2023-11-21T04:44:52;5.90;99.90
5258;DHT22;2651;51.594;9.928;2023-11-21T04:45:55;5.90;99.90
5258;DHT22;2651;51.594;9.928;2023-11-21T04:46:56;5.90;99.90
5258;DHT22;2651;51.594;9.928;2023-11-21T04:47:58;5.90;99.90
5258;DHT22;2651;51.594;9.928;2023-11-21T04:49:00;6.00;99.90
5258;DHT22;2651;51.594;9.928;2023-11-21T04:50:02;6.00;99.90
5258;DHT22;2651;51.594;9.928;2023-11-21T04:51:05;6.00;99.90
5258;DHT22;2651;51.594;9.928;2023-11-21T04:52:06;6.00;99.90
5258;DHT22;2651;51.594;9.928;2023-11-21T04:53:09;6.00;99.90
5258;DHT22;2651;51.594;9.928;2023-11-21T04:54:11;6.00;99.90
5258;DHT22;2651;51.594;9.928;2023-11-21T04:55:13;6.00;99.90
5258;DHT22;2651;51.594;9.928;2023-11-21T04:56:14;6.00;99.90
5258;DHT22;2651;51.594;9.928;2023-11-21T04:57:17;6.00;99.90
5258;DHT22;2651;51.594;9.928;2023-11-21T04:58:20;6.10;99.90
5258;DHT22;2651;51.594;9.928;2023-11-21T04:59:22;6.10;99.90
5258;DHT22;2651;51.594;9.928;2023-11-21T05:00:28;6.10;99.90
5258;DHT22;2651;51.594;9.928;2023-11-21T05:01:30;6.10;99.90
5258;DHT22;2651;51.594;9.928;2023-11-21T05:02:32;6.20;99.90
5258;DHT22;2651;51.594;9.928;2023-11-21T05:03:37;6.20;99.90
5258;DHT22;2651;51.594;9.928;2023-11-21T05:04:40;6.20;99.90
5258;DHT22;2651;51.594;9.928;2023-11-21T05:05:44;6.30;99.90
5258;DHT22;2651;51.594;9.928;2023-11-21T05:06:46;6.30;99.90
5258;DHT22;2651;51.594;9.928;2023-11-21T05:07:47;6.30;99.90
5258;DHT22;2651;51.594;9.928;2023-11-21T05:08:50;6.30;99.90
5258;DHT22;2651;51.594;9.928;2023-11-21T05:09:52;6.30;99.90
5258;DHT22;2651;51.594;9.928;2023-11-21T05:10:53;6.30;99.90
5258;DHT22;2651;51.594;9.928;2023-11-21T05:11:55;6.30;99.90
5258;DHT22;2651;51.594;9.928;2023-11-21T05:12:57;6.30;99.90
5258;DHT22;2651;51.594;9.928;2023-11-21T05:14:00;6.20;99.90
5258;DHT22;2651;51.594;9.928;2023-11-21T05:15:07;6.30;99.90
5258;DHT22;2651;51.594;9.928;2023-11-21T05:16:09;6.30;99.90
5258;DHT22;2651;51.594;9.928;2023-11-21T05:17:11;6.30;99.90
5258;DHT22;2651;51.594;9.928;2023-11-21T05:18:13;6.10;99.90
5258;DHT22;2651;51.594;9.928;2023-11-21T05:19:15;6.10;99.90
5258;DHT22;2651;51.594;9.928;2023-11-21T05:20:17;6.10;99.90
5258;DHT22;2651;51.594;9.928;2023-11-21T05:21:22;6.00;99.90
5258;DHT22;2651;51.594;9.928;2023-11-21T05:22:24;6.10;99.90
5258;DHT22;2651;51.594;9.928;2023-11-21T05:23:26;6.00;99.90
5258;DHT22;2651;51.594;9.928;2023-11-21T05:24:28;6.10;99.90
5258;DHT22;2651;51.594;9.928;2023-11-21T05:25:30;6.10;99.90
5258;DHT22;2651;51.594;9.928;2023-11-21T05:26:32;6.10;99.90
5258;DHT22;2651;51.594;9.928;2023-11-21T05:27:34;6.10;99.90
5258;DHT22;2651;51.594;9.928;2023-11-21T05:28:36;6.20;99.90
5258;DHT22;2651;51.594;9.928;2023-11-21T05:29:38;6.20;99.90
5258;DHT22;2651;51.594;9.928;2023-11-21T05:30:40;6.20;99.90
5258;DHT22;2651;51.594;9.928;2023-11-21T05:31:42;6.20;99.90
5258;DHT22;2651;51.594;9.928;2023-11-21T05:32:44;6.30;99.90
5258;DHT22;2651;51.594;9.928;2023-11-21T05:33:47;6.30;99.90
5258;DHT22;2651;51.594;9.928;2023-11-21T05:34:48;6.30;99.90
5258;DHT22;2651;51.594;9.928;2023-11-21T05:35:50;6.40;99.90
5258;DHT22;2651;51.594;9.928;2023-11-21T05:36:52;6.40;99.90
5258;DHT22;2651;51.594;9.928;2023-11-21T05:37:55;6.40;99.90
5258;DHT22;2651;51.594;9.928;2023-11-21T05:38:56;6.50;99.90
5258;DHT22;2651;51.594;9.928;2023-11-21T05:39:58;6.50;99.90
5258;DHT22;2651;51.594;9.928;2023-11-21T05:41:02;6.50;99.90
5258;DHT22;2651;51.594;9.928;2023-11-21T05:42:05;6.50;99.90
5258;DHT22;2651;51.594;9.928;2023-11-21T05:43:07;6.40;99.90
5258;DHT22;2651;51.594;9.928;2023-11-21T05:44:09;6.40;99.90
5258;DHT22;2651;51.594;9.928;2023-11-21T05:45:11;6.40;99.90
5258;DHT22;2651;51.594;9.928;2023-11-21T05:46:14;6.50;99.90
5258;DHT22;2651;51.594;9.928;2023-11-21T05:47:16;6.40;99.90
5258;DHT22;2651;51.594;9.928;2023-11-21T05:48:17;6.40;99.90
5258;DHT22;2651;51.594;9.928;2023-11-21T05:49:19;6.50;99.90
5258;DHT22;2651;51.594;9.928;2023-11-21T05:50:24;6.50;99.90
5258;DHT22;2651;51.594;9.928;2023-11-21T05:51:26;6.50;99.90
5258;DHT22;2651;51.594;9.928;2023-11-21T05:52:27;6.50;99.90
5258;DHT22;2651;51.594;9.928;2023-11-21T05:53:29;6.40;99.90
5258;DHT22;2651;51.594;9.928;2023-11-21T05:54:32;6.40;99.90
5258;DHT22;2651;51.594;9.928;2023-11-21T05:55:34;6.40;99.90
5258;DHT22;2651;51.594;9.928;2023-11-21T05:56:35;6.40;99.90
5258;DHT22;2651;51.594;9.928;2023-11-21T05:57:38;6.50;99.90
5258;DHT22;2651;51.594;9.928;2023-11-21T05:58:40;6.50;99.90
5258;DHT22;2651;51.594;9.928;2023-11-21T05:59:42;6.50;99.90
5258;DHT22;2651;51.594;9.928;2023-11-21T06:00:44;6.50;99.90
5258;DHT22;2651;51.594;9.928;2023-11-21T06:01:46;6.60;99.90
5258;DHT22;2651;51.594;9.928;2023-11-21T06:02:52;6.60;99.90
5258;DHT22;2651;51.594;9.928;2023-11-21T06:03:54;6.60;99.90
5258;DHT22;2651;51.594;9.928;2023-11-21T06:04:56;6.60;99.90
5258;DHT22;2651;51.594;9.928;2023-11-21T06:05:58;6.60;99.90
5258;DHT22;2651;51.594;9.928;2023-11-21T06:07:00;6.60;99.90
5258;DHT22;2651;51.594;9.928;2023-11-21T06:08:03;6.60;99.90
5258;DHT22;2651;51.594;9.928;2023-11-21T06:09:05;6.60;99.90
5258;DHT22;2651;51.594;9.928;2023-11-21T06:10:11;6.60;99.90
5258;DHT22;2651;51.594;9.928;2023-11-21T06:11:15;6.70;99.90
5258;DHT22;2651;51.594;9.928;2023-11-21T06:12:18;6.70;99.90
5258;DHT22;2651;51.594;9.928;2023-11-21T06:13:21;6.70;99.90
5258;DHT22;2651;51.594;9.928;2023-11-21T06:14:26;6.70;99.90
5258;DHT22;2651;51.594;9.928;2023-11-21T06:15:28;6.70;99.90
5258;DHT22;2651;51.594;9.928;2023-11-21T06:16:30;6.70;99.90
5258;DHT22;2651;51.594;9.928;2023-11-21T06:17:32;6.70;99.90
5258;DHT22;2651;51.594;9.928;2023-11-21T06:18:34;6.70;99.90
5258;DHT22;2651;51.594;9.928;2023-11-21T06:19:36;6.70;99.90
5258;DHT22;2651;51.594;9.928;2023-11-21T06:20:38;6.70;99.90
5258;DHT22;2651;51.594;9.928;2023-11-21T06:21:40;6.70;99.90
5258;DHT22;2651;51.594;9.928;2023-11-21T06:22:42;6.70;99.90
5258;DHT22;2651;51.594;9.928;2023-11-21T06:23:45;6.70;99.90
5258;DHT22;2651;51.594;9.928;2023-11-21T06:24:46;6.70;99.90
5258;DHT22;2651;51.594;9.928;2023-11-21T06:25:48;6.80;99.90
5258;DHT22;2651;51.594;9.928;2023-11-21T06:26:50;6.80;99.90
5258;DHT22;2651;51.594;9.928;2023-11-21T06:27:52;6.80;99.90
5258;DHT22;2651;51.594;9.928;2023-11-21T06:28:55;6.80;99.90
5258;DHT22;2651;51.594;9.928;2023-11-21T06:29:58;6.80;99.90
5258;DHT22;2651;51.594;9.928;2023-11-21T06:31:00;6.80;99.90
5258;DHT22;2651;51.594;9.928;2023-11-21T06:32:06;6.80;99.90
5258;DHT22;2651;51.594;9.928;2023-11-21T06:33:08;6.80;99.90
5258;DHT22;2651;51.594;9.928;2023-11-21T06:34:10;6.80;99.90
5258;DHT22;2651;51.594;9.928;2023-11-21T06:35:11;6.80;99.90
5258;DHT22;2651;51.594;9.928;2023-11-21T06:36:14;6.80;99.90
5258;DHT22;2651;51.594;9.928;2023-11-21T06:37:16;6.80;99.90
5258;DHT22;2651;51.594;9.928;2023-11-21T06:38:18;6.80;99.90
5258;DHT22;2651;51.594;9.928;2023-11-21T06:39:21;6.80;99.90
5258;DHT22;2651;51.594;9.928;2023-11-21T06:40:24;6.90;99.90
5258;DHT22;2651;51.594;9.928;2023-11-21T06:41:26;6.90;99.90
5258;DHT22;2651;51.594;9.928;2023-11-21T06:42:28;6.90;99.90
5258;DHT22;2651;51.594;9.928;2023-11-21T06:43:30;6.90;99.90
5258;DHT22;2651;51.594;9.928;2023-11-21T06:44:33;6.90;99.90
5258;DHT22;2651;51.594;9.928;2023-11-21T06:45:35;6.90;99.90
5258;DHT22;2651;51.594;9.928;2023-11-21T06:46:37;6.90;99.90
5258;DHT22;2651;51.594;9.928;2023-11-21T06:47:40;6.90;99.90
5258;DHT22;2651;51.594;9.928;2023-11-21T06:48:43;6.90;99.90
5258;DHT22;2651;51.594;9.928;2023-11-21T06:49:45;6.90;99.90
5258;DHT22;2651;51.594;9.928;2023-11-21T06:50:49;6.90;99.90
5258;DHT22;2651;51.594;9.928;2023-11-21T06:51:51;7.00;99.90
5258;DHT22;2651;51.594;9.928;2023-11-21T06:52:53;7.00;99.90